sensor_id;sensor_type;location;lat;lon;timestamp;temperature;humidity
25214;DHT22;13160;51.834;4.706;2023-01-24T00:00:20;4.60;99.90
25214;DHT22;13160;51.834;4.706;2023-01-24T00:02:49;4.60;99.90
25214;DHT22;13160;51.834;4.706;2023-01-24T00:05:18;4.70;99.90
25214;DHT22;13160;51.834;4.706;2023-01-24T00:07:48;4.60;99.90
25214;DHT22;13160;51.834;4.706;2023-01-24T00:10:22;4.60;99.90
25214;DHT22;13160;51.834;4.706;2023-01-24T00:12:55;4.60;99.90
25214;DHT22;13160;51.834;4.706;2023-01-24T00:15:24;4.60;99.90
25214;DHT22;13160;51.834;4.706;2023-01-24T00:17:53;4.60;99.90
25214;DHT22;13160;51.834;4.706;2023-01-24T00:20:22;4.60;99.90
25214;DHT22;13160;51.834;4.706;2023-01-24T00:22:53;4.60;99.90
25214;DHT22;13160;51.834;4.706;2023-01-24T00:25:22;4.50;99.90
25214;DHT22;13160;51.834;4.706;2023-01-24T00:27:50;4.60;99.90
25214;DHT22;13160;51.834;4.706;2023-01-24T00:30:20;4.60;99.90
25214;DHT22;13160;51.834;4.706;2023-01-24T00:32:52;4.50;99.90
25214;DHT22;13160;51.834;4.706;2023-01-24T00:35:21;4.60;99.90
25214;DHT22;13160;51.834;4.706;2023-01-24T00:37:50;4.50;99.90
25214;DHT22;13160;51.834;4.706;2023-01-24T00:40:20;4.60;99.90
25214;DHT22;13160;51.834;4.706;2023-01-24T00:42:50;4.60;99.90
25214;DHT22;13160;51.834;4.706;2023-01-24T00:45:19;4.50;99.90
25214;DHT22;13160;51.834;4.706;2023-01-24T00:47:48;4.60;99.90
25214;DHT22;13160;51.834;4.706;2023-01-24T00:50:17;4.50;99.90
25214;DHT22;13160;51.834;4.706;2023-01-24T00:52:49;4.50;99.90
25214;DHT22;13160;51.834;4.706;2023-01-24T00:55:20;4.50;99.90
25214;DHT22;13160;51.834;4.706;2023-01-24T00:57:49;4.50;99.90
25214;DHT22;13160;51.834;4.706;2023-01-24T01:00:19;4.50;99.90
25214;DHT22;13160;51.834;4.706;2023-01-24T01:02:49;4.50;99.90
25214;DHT22;13160;51.834;4.706;2023-01-24T01:05:18;4.40;99.90
25214;DHT22;13160;51.834;4.706;2023-01-24T01:07:47;4.50;99.90
25214;DHT22;13160;51.834;4.706;2023-01-24T01:10:16;4.40;99.90
25214;DHT22;13160;51.834;4.706;2023-01-24T01:12:46;4.40;99.90
25214;DHT22;13160;51.834;4.706;2023-01-24T01:15:16;4.40;99.90
25214;DHT22;13160;51.834;4.706;2023-01-24T01:17:48;4.40;99.90
25214;DHT22;13160;51.834;4.706;2023-01-24T01:20:17;4.40;99.90
25214;DHT22;13160;51.834;4.706;2023-01-24T01:22:46;4.40;99.90
25214;DHT22;13160;51.834;4.706;2023-01-24T01:25:15;4.50;99.90
25214;DHT22;13160;51.834;4.706;2023-01-24T01:27:46;4.40;99.90
25214;DHT22;13160;51.834;4.706;2023-01-24T01:30:16;4.40;99.90
25214;DHT22;13160;51.834;4.706;2023-01-24T01:32:46;4.50;99.90
25214;DHT22;13160;51.834;4.706;2023-01-24T01:35:15;4.50;99.90
25214;DHT22;13160;51.834;4.706;2023-01-24T01:37:44;4.50;99.90
25214;DHT22;13160;51.834;4.706;2023-01-24T01:40:13;4.60;99.90
25214;DHT22;13160;51.834;4.706;2023-01-24T01:42:51;4.50;99.90
25214;DHT22;13160;51.834;4.706;2023-01-24T01:45:34;4.50;99.90
25214;DHT22;13160;51.834;4.706;2023-01-24T01:48:17;4.60;99.90
25214;DHT22;13160;51.834;4.706;2023-01-24T01:50:54;4.50;99.90
25214;DHT22;13160;51.834;4.706;2023-01-24T01:53:27;4.50;99.90
25214;DHT22;13160;51.834;4.706;2023-01-24T01:56:02;4.50;99.90
25214;DHT22;13160;51.834;4.706;2023-01-24T01:58:35;4.50;99.90
25214;DHT22;13160;51.834;4.706;2023-01-24T02:01:05;4.40;99.90
25214;DHT22;13160;51.834;4.706;2023-01-24T02:03:38;4.50;99.90
25214;DHT22;13160;51.834;4.706;2023-01-24T02:06:27;4.40;99.90
25214;DHT22;13160;51.834;4.706;2023-01-24T02:09:04;4.40;99.90
25214;DHT22;13160;51.834;4.706;2023-01-24T02:11:36;4.50;99.90
25214;DHT22;13160;51.834;4.706;2023-01-24T02:14:09;4.40;99.90
25214;DHT22;13160;51.834;4.706;2023-01-24T02:16:56;4.40;99.90
25214;DHT22;13160;51.834;4.706;2023-01-24T02:19:47;4.40;99.90
25214;DHT22;13160;51.834;4.706;2023-01-24T02:22:29;4.30;99.90
25214;DHT22;13160;51.834;4.706;2023-01-24T02:25:10;4.30;99.90
25214;DHT22;13160;51.834;4.706;2023-01-24T02:27:44;4.30;99.90
25214;DHT22;13160;51.834;4.706;2023-01-24T02:30:13;4.30;99.90
25214;DHT22;13160;51.834;4.706;2023-01-24T02:32:43;4.20;99.90
25214;DHT22;13160;51.834;4.706;2023-01-24T02:35:26;4.30;99.90
25214;DHT22;13160;51.834;4.706;2023-01-24T02:38:00;4.30;99.90
25214;DHT22;13160;51.834;4.706;2023-01-24T02:40:32;4.30;99.90
25214;DHT22;13160;51.834;4.706;2023-01-24T02:43:05;4.20;99.90
25214;DHT22;13160;51.834;4.706;2023-01-24T02:45:35;4.30;99.90
25214;DHT22;13160;51.834;4.706;2023-01-24T02:48:04;4.30;99.90
25214;DHT22;13160;51.834;4.706;2023-01-24T02:50:33;4.20;99.90
25214;DHT22;13160;51.834;4.706;2023-01-24T02:53:22;4.20;99.90
25214;DHT22;13160;51.834;4.706;2023-01-24T02:56:00;4.20;99.90
25214;DHT22;13160;51.834;4.706;2023-01-24T02:58:49;4.20;99.90
25214;DHT22;13160;51.834;4.706;2023-01-24T03:01:19;4.10;99.90
25214;DHT22;13160;51.834;4.706;2023-01-24T03:03:50;4.20;99.90
25214;DHT22;13160;51.834;4.706;2023-01-24T03:06:19;4.20;99.90
25214;DHT22;13160;51.834;4.706;2023-01-24T03:08:48;4.20;99.90
25214;DHT22;13160;51.834;4.706;2023-01-24T03:11:17;4.20;99.90
25214;DHT22;13160;51.834;4.706;2023-01-24T03:13:47;4.20;99.90
25214;DHT22;13160;51.834;4.706;2023-01-24T03:16:34;4.20;99.90
25214;DHT22;13160;51.834;4.706;2023-01-24T03:19:20;4.20;99.90
25214;DHT22;13160;51.834;4.706;2023-01-24T03:22:06;4.20;99.90
25214;DHT22;13160;51.834;4.706;2023-01-24T03:24:59;4.20;99.90
25214;DHT22;13160;51.834;4.706;2023-01-24T03:27:45;4.10;99.90
25214;DHT22;13160;51.834;4.706;2023-01-24T03:30:32;4.20;99.90
25214;DHT22;13160;51.834;4.706;2023-01-24T03:33:19;4.10;99.90
25214;DHT22;13160;51.834;4.706;2023-01-24T03:36:05;4.10;99.90
25214;DHT22;13160;51.834;4.706;2023-01-24T03:38:46;4.10;99.90
25214;DHT22;13160;51.834;4.706;2023-01-24T03:41:35;4.10;99.90
25214;DHT22;13160;51.834;4.706;2023-01-24T03:44:04;4.10;99.90
25214;DHT22;13160;51.834;4.706;2023-01-24T03:46:34;4.10;99.90
25214;DHT22;13160;51.834;4.706;2023-01-24T03:49:07;4.10;99.90
25214;DHT22;13160;51.834;4.706;2023-01-24T03:51:37;4.10;99.90
25214;DHT22;13160;51.834;4.706;2023-01-24T03:54:23;4.10;99.90
25214;DHT22;13160;51.834;4.706;2023-01-24T03:56:51;4.10;99.90
25214;DHT22;13160;51.834;4.706;2023-01-24T03:59:22;4.10;99.90
25214;DHT22;13160;51.834;4.706;2023-01-24T04:01:53;4.20;99.90
25214;DHT22;13160;51.834;4.706;2023-01-24T04:04:22;4.20;99.90
25214;DHT22;13160;51.834;4.706;2023-01-24T04:06:50;4.10;99.90
25214;DHT22;13160;51.834;4.706;2023-01-24T04:09:19;4.00;99.90
25214;DHT22;13160;51.834;4.706;2023-01-24T04:11:48;4.10;99.90
25214;DHT22;13160;51.834;4.706;2023-01-24T04:14:20;4.10;99.90
25214;DHT22;13160;51.834;4.706;2023-01-24T04:16:49;4.10;99.90
25214;DHT22;13160;51.834;4.706;2023-01-24T04:19:19;4.10;99.90
25214;DHT22;13160;51.834;4.706;2023-01-24T04:21:48;4.10;99.90
25214;DHT22;13160;51.834;4.706;2023-01-24T04:24:17;4.10;99.90
25214;DHT22;13160;51.834;4.706;2023-01-24T04:26:46;4.10;99.90
25214;DHT22;13160;51.834;4.706;2023-01-24T04:29:15;4.00;99.90
25214;DHT22;13160;51.834;4.706;2023-01-24T04:31:44;4.10;99.90
25214;DHT22;13160;51.834;4.706;2023-01-24T04:34:12;4.10;99.90
25214;DHT22;13160;51.834;4.706;2023-01-24T04:36:42;4.10;99.90
25214;DHT22;13160;51.834;4.706;2023-01-24T04:39:11;4.00;99.90
25214;DHT22;13160;51.834;4.706;2023-01-24T04:41:40;4.00;99.90
25214;DHT22;13160;51.834;4.706;2023-01-24T04:44:09;4.10;99.90
25214;DHT22;13160;51.834;4.706;2023-01-24T04:46:37;4.10;99.90
25214;DHT22;13160;51.834;4.706;2023-01-24T04:49:07;4.10;99.90
25214;DHT22;13160;51.834;4.706;2023-01-24T04:51:35;4.10;99.90
25214;DHT22;13160;51.834;4.706;2023-01-24T04:54:10;4.00;99.90
25214;DHT22;13160;51.834;4.706;2023-01-24T04:56:41;4.10;99.90
25214;DHT22;13160;51.834;4.706;2023-01-24T04:59:11;4.00;99.90
25214;DHT22;13160;51.834;4.706;2023-01-24T05:01:41;4.10;99.90
25214;DHT22;13160;51.834;4.706;2023-01-24T05:04:10;4.10;99.90
25214;DHT22;13160;51.834;4.706;2023-01-24T05:06:39;4.10;99.90
25214;DHT22;13160;51.834;4.706;2023-01-24T05:09:08;4.10;99.90
25214;DHT22;13160;51.834;4.706;2023-01-24T05:11:38;4.20;99.90
25214;DHT22;13160;51.834;4.706;2023-01-24T05:14:08;4.10;99.90
25214;DHT22;13160;51.834;4.706;2023-01-24T05:16:37;4.10;99.90
25214;DHT22;13160;51.834;4.706;2023-01-24T05:19:06;4.10;99.90
25214;DHT22;13160;51.834;4.706;2023-01-24T05:21:35;4.10;99.90
25214;DHT22;13160;51.834;4.706;2023-01-24T05:24:04;4.10;99.90
25214;DHT22;13160;51.834;4.706;2023-01-24T05:26:41;4.10;99.90
25214;DHT22;13160;51.834;4.706;2023-01-24T06:27:27;4.00;99.90
25214;DHT22;13160;51.834;4.706;2023-01-24T06:29:57;4.00;99.90
25214;DHT22;13160;51.834;4.706;2023-01-24T06:32:35;4.00;99.90
25214;DHT22;13160;51.834;4.706;2023-01-24T06:35:17;3.90;99.90
25214;DHT22;13160;51.834;4.706;2023-01-24T06:37:55;3.90;99.90
25214;DHT22;13160;51.834;4.706;2023-01-24T06:40:25;4.00;99.90
25214;DHT22;13160;51.834;4.706;2023-01-24T06:56:19;3.90;99.90
25214;DHT22;13160;51.834;4.706;2023-01-24T07:14:12;3.80;99.90
25214;DHT22;13160;51.834;4.706;2023-01-24T07:16:40;3.80;99.90
25214;DHT22;13160;51.834;4.706;2023-01-24T07:19:14;3.90;99.90
25214;DHT22;13160;51.834;4.706;2023-01-24T07:21:44;3.70;99.90
25214;DHT22;13160;51.834;4.706;2023-01-24T07:24:18;3.70;99.90
25214;DHT22;13160;51.834;4.706;2023-01-24T07:26:49;3.70;99.90
25214;DHT22;13160;51.834;4.706;2023-01-24T07:29:21;3.80;99.90
25214;DHT22;13160;51.834;4.706;2023-01-24T07:31:52;3.80;99.90
25214;DHT22;13160;51.834;4.706;2023-01-24T07:34:22;3.80;99.90
25214;DHT22;13160;51.834;4.706;2023-01-24T07:36:56;3.70;99.90
25214;DHT22;13160;51.834;4.706;2023-01-24T07:39:33;3.70;99.90
25214;DHT22;13160;51.834;4.706;2023-01-24T07:42:02;3.80;99.90
25214;DHT22;13160;51.834;4.706;2023-01-24T07:44:33;3.70;99.90
25214;DHT22;13160;51.834;4.706;2023-01-24T07:47:04;3.80;99.90
25214;DHT22;13160;51.834;4.706;2023-01-24T07:49:33;3.80;99.90
25214;DHT22;13160;51.834;4.706;2023-01-24T07:52:01;3.90;99.90
25214;DHT22;13160;51.834;4.706;2023-01-24T07:54:30;3.80;99.90
25214;DHT22;13160;51.834;4.706;2023-01-24T07:57:00;3.90;99.90
25214;DHT22;13160;51.834;4.706;2023-01-24T07:59:29;3.90;99.90
25214;DHT22;13160;51.834;4.706;2023-01-24T08:02:08;3.90;99.90
25214;DHT22;13160;51.834;4.706;2023-01-24T08:04:37;3.80;99.90
25214;DHT22;13160;51.834;4.706;2023-01-24T08:07:18;3.80;99.90
25214;DHT22;13160;51.834;4.706;2023-01-24T08:09:48;3.80;99.90
25214;DHT22;13160;51.834;4.706;2023-01-24T08:12:19;3.70;99.90
25214;DHT22;13160;51.834;4.706;2023-01-24T08:14:48;3.70;99.90
25214;DHT22;13160;51.834;4.706;2023-01-24T08:17:21;3.70;99.90
25214;DHT22;13160;51.834;4.706;2023-01-24T08:20:07;3.60;99.90
25214;DHT22;13160;51.834;4.706;2023-01-24T08:22:38;3.70;99.90
25214;DHT22;13160;51.834;4.706;2023-01-24T08:25:23;3.60;99.90
25214;DHT22;13160;51.834;4.706;2023-01-24T08:27:53;3.60;99.90
25214;DHT22;13160;51.834;4.706;2023-01-24T08:30:22;3.60;99.90
25214;DHT22;13160;51.834;4.706;2023-01-24T08:33:04;3.60;99.90
25214;DHT22;13160;51.834;4.706;2023-01-24T08:35:33;3.70;99.90
25214;DHT22;13160;51.834;4.706;2023-01-24T08:38:05;3.60;99.90
25214;DHT22;13160;51.834;4.706;2023-01-24T08:40:34;3.60;99.90
25214;DHT22;13160;51.834;4.706;2023-01-24T08:43:14;3.60;99.90
25214;DHT22;13160;51.834;4.706;2023-01-24T08:45:43;3.60;99.90
25214;DHT22;13160;51.834;4.706;2023-01-24T08:48:14;3.60;99.90
25214;DHT22;13160;51.834;4.706;2023-01-24T08:50:44;3.70;99.90
25214;DHT22;13160;51.834;4.706;2023-01-24T08:53:20;3.60;99.90
25214;DHT22;13160;51.834;4.706;2023-01-24T08:55:49;3.60;99.90
25214;DHT22;13160;51.834;4.706;2023-01-24T09:33:11;3.70;99.90
25214;DHT22;13160;51.834;4.706;2023-01-24T09:35:40;3.70;99.90
25214;DHT22;13160;51.834;4.706;2023-01-24T09:38:13;3.70;99.90
25214;DHT22;13160;51.834;4.706;2023-01-24T09:40:44;3.60;99.90
25214;DHT22;13160;51.834;4.706;2023-01-24T09:43:27;3.70;99.90
25214;DHT22;13160;51.834;4.706;2023-01-24T09:46:23;3.80;99.90
25214;DHT22;13160;51.834;4.706;2023-01-24T09:49:13;3.70;99.90
25214;DHT22;13160;51.834;4.706;2023-01-24T09:51:47;3.70;99.90
25214;DHT22;13160;51.834;4.706;2023-01-24T09:54:25;3.70;99.90
25214;DHT22;13160;51.834;4.706;2023-01-24T09:56:59;3.70;99.90
25214;DHT22;13160;51.834;4.706;2023-01-24T09:59:36;3.70;99.90
25214;DHT22;13160;51.834;4.706;2023-01-24T10:02:14;3.70;99.90
25214;DHT22;13160;51.834;4.706;2023-01-24T10:04:47;3.60;99.90
25214;DHT22;13160;51.834;4.706;2023-01-24T10:07:42;3.60;99.90
25214;DHT22;13160;51.834;4.706;2023-01-24T10:10:26;3.70;99.90
25214;DHT22;13160;51.834;4.706;2023-01-24T10:13:23;3.70;99.90
25214;DHT22;13160;51.834;4.706;2023-01-24T10:16:16;3.70;99.90
25214;DHT22;13160;51.834;4.706;2023-01-24T10:19:00;3.70;99.90
25214;DHT22;13160;51.834;4.706;2023-01-24T10:22:07;3.70;99.90
25214;DHT22;13160;51.834;4.706;2023-01-24T10:24:48;3.80;99.90
25214;DHT22;13160;51.834;4.706;2023-01-24T10:27:25;3.70;99.90
25214;DHT22;13160;51.834;4.706;2023-01-24T10:30:14;3.60;99.90
25214;DHT22;13160;51.834;4.706;2023-01-24T10:32:48;3.70;99.90
25214;DHT22;13160;51.834;4.706;2023-01-24T10:35:23;3.70;99.90
25214;DHT22;13160;51.834;4.706;2023-01-24T10:37:59;3.70;99.90
25214;DHT22;13160;51.834;4.706;2023-01-24T10:40:34;3.80;99.90
25214;DHT22;13160;51.834;4.706;2023-01-24T10:43:17;3.80;99.90
25214;DHT22;13160;51.834;4.706;2023-01-24T10:45:58;3.80;99.90
25214;DHT22;13160;51.834;4.706;2023-01-24T10:48:39;3.80;99.90
25214;DHT22;13160;51.834;4.706;2023-01-24T10:51:13;3.90;99.90
25214;DHT22;13160;51.834;4.706;2023-01-24T10:53:45;3.80;99.90
25214;DHT22;13160;51.834;4.706;2023-01-24T10:56:16;3.80;99.90
25214;DHT22;13160;51.834;4.706;2023-01-24T10:58:57;3.80;99.90
25214;DHT22;13160;51.834;4.706;2023-01-24T11:01:38;3.70;99.90
25214;DHT22;13160;51.834;4.706;2023-01-24T11:04:19;3.80;99.90
25214;DHT22;13160;51.834;4.706;2023-01-24T11:06:50;3.80;99.90
25214;DHT22;13160;51.834;4.706;2023-01-24T11:09:27;3.80;99.90
25214;DHT22;13160;51.834;4.706;2023-01-24T11:14:34;3.80;99.90
25214;DHT22;13160;51.834;4.706;2023-01-24T11:17:29;3.80;99.90
25214;DHT22;13160;51.834;4.706;2023-01-24T11:20:20;3.80;99.90
25214;DHT22;13160;51.834;4.706;2023-01-24T11:23:02;3.80;99.90
25214;DHT22;13160;51.834;4.706;2023-01-24T11:25:51;3.90;99.90
25214;DHT22;13160;51.834;4.706;2023-01-24T11:28:26;3.80;99.90
25214;DHT22;13160;51.834;4.706;2023-01-24T11:30:58;4.00;99.90
25214;DHT22;13160;51.834;4.706;2023-01-24T11:33:54;3.90;99.90
25214;DHT22;13160;51.834;4.706;2023-01-24T11:36:39;3.90;99.90
25214;DHT22;13160;51.834;4.706;2023-01-24T11:39:16;3.90;99.90
25214;DHT22;13160;51.834;4.706;2023-01-24T11:41:56;4.00;99.90
25214;DHT22;13160;51.834;4.706;2023-01-24T11:47:59;4.00;99.90
25214;DHT22;13160;51.834;4.706;2023-01-24T11:50:42;4.00;99.90
25214;DHT22;13160;51.834;4.706;2023-01-24T11:54:10;4.10;99.90
25214;DHT22;13160;51.834;4.706;2023-01-24T11:57:01;4.00;99.90
25214;DHT22;13160;51.834;4.706;2023-01-24T12:00:30;4.10;99.90
25214;DHT22;13160;51.834;4.706;2023-01-24T13:17:10;4.10;99.90
25214;DHT22;13160;51.834;4.706;2023-01-24T13:20:03;4.00;99.90
25214;DHT22;13160;51.834;4.706;2023-01-24T13:22:54;4.10;99.90
25214;DHT22;13160;51.834;4.706;2023-01-24T13:25:53;4.10;99.90
25214;DHT22;13160;51.834;4.706;2023-01-24T13:28:35;4.00;99.90
25214;DHT22;13160;51.834;4.706;2023-01-24T13:31:15;4.10;99.90
25214;DHT22;13160;51.834;4.706;2023-01-24T13:33:52;4.10;99.90
25214;DHT22;13160;51.834;4.706;2023-01-24T13:36:28;4.10;99.90
25214;DHT22;13160;51.834;4.706;2023-01-24T13:39:01;4.10;99.90
25214;DHT22;13160;51.834;4.706;2023-01-24T14:11:54;4.10;99.90
25214;DHT22;13160;51.834;4.706;2023-01-24T14:20:22;4.10;99.90
25214;DHT22;13160;51.834;4.706;2023-01-24T14:23:03;4.00;99.90
25214;DHT22;13160;51.834;4.706;2023-01-24T14:25:48;4.10;99.90
25214;DHT22;13160;51.834;4.706;2023-01-24T14:28:31;4.20;99.90
25214;DHT22;13160;51.834;4.706;2023-01-24T14:31:19;4.20;99.90
25214;DHT22;13160;51.834;4.706;2023-01-24T14:33:58;4.10;99.90
25214;DHT22;13160;51.834;4.706;2023-01-24T14:36:36;4.10;99.90
25214;DHT22;13160;51.834;4.706;2023-01-24T14:39:25;4.10;99.90
25214;DHT22;13160;51.834;4.706;2023-01-24T14:42:00;4.10;99.90
25214;DHT22;13160;51.834;4.706;2023-01-24T14:44:38;4.10;99.90
25214;DHT22;13160;51.834;4.706;2023-01-24T14:47:18;4.10;99.90
25214;DHT22;13160;51.834;4.706;2023-01-24T14:49:52;4.10;99.90
25214;DHT22;13160;51.834;4.706;2023-01-24T14:52:28;4.10;99.90
25214;DHT22;13160;51.834;4.706;2023-01-24T14:55:12;4.10;99.90
25214;DHT22;13160;51.834;4.706;2023-01-24T14:57:53;4.10;99.90
25214;DHT22;13160;51.834;4.706;2023-01-24T15:00:25;4.00;99.90
25214;DHT22;13160;51.834;4.706;2023-01-24T15:02:56;4.10;99.90
25214;DHT22;13160;51.834;4.706;2023-01-24T15:05:31;4.00;99.90
25214;DHT22;13160;51.834;4.706;2023-01-24T15:08:05;4.00;99.90
25214;DHT22;13160;51.834;4.706;2023-01-24T15:10:42;4.00;99.90
25214;DHT22;13160;51.834;4.706;2023-01-24T15:13:19;4.00;99.90
25214;DHT22;13160;51.834;4.706;2023-01-24T15:15:57;4.10;99.90
25214;DHT22;13160;51.834;4.706;2023-01-24T15:18:40;4.10;99.90
25214;DHT22;13160;51.834;4.706;2023-01-24T15:21:29;4.10;99.90
25214;DHT22;13160;51.834;4.706;2023-01-24T15:24:02;4.00;99.90
25214;DHT22;13160;51.834;4.706;2023-01-24T15:26:38;4.00;99.90
25214;DHT22;13160;51.834;4.706;2023-01-24T15:30:01;4.10;99.90
25214;DHT22;13160;51.834;4.706;2023-01-24T15:32:41;3.90;99.90
25214;DHT22;13160;51.834;4.706;2023-01-24T15:35:32;3.90;99.90
25214;DHT22;13160;51.834;4.706;2023-01-24T15:38:17;3.90;99.90
25214;DHT22;13160;51.834;4.706;2023-01-24T15:40:52;3.90;99.90
25214;DHT22;13160;51.834;4.706;2023-01-24T15:43:33;3.90;99.90
25214;DHT22;13160;51.834;4.706;2023-01-24T15:46:30;3.90;99.90
25214;DHT22;13160;51.834;4.706;2023-01-24T15:49:25;3.80;99.90
25214;DHT22;13160;51.834;4.706;2023-01-24T15:52:18;3.80;99.90
25214;DHT22;13160;51.834;4.706;2023-01-24T15:54:53;3.80;99.90
25214;DHT22;13160;51.834;4.706;2023-01-24T15:57:26;3.70;99.90
25214;DHT22;13160;51.834;4.706;2023-01-24T15:59:59;3.80;99.90
25214;DHT22;13160;51.834;4.706;2023-01-24T16:02:33;3.80;99.90
25214;DHT22;13160;51.834;4.706;2023-01-24T16:05:10;3.80;99.90
25214;DHT22;13160;51.834;4.706;2023-01-24T16:07:42;3.80;99.90
25214;DHT22;13160;51.834;4.706;2023-01-24T16:10:12;3.80;99.90
25214;DHT22;13160;51.834;4.706;2023-01-24T16:12:42;3.70;99.90
25214;DHT22;13160;51.834;4.706;2023-01-24T16:15:15;3.80;99.90
25214;DHT22;13160;51.834;4.706;2023-01-24T16:17:48;3.80;99.90
25214;DHT22;13160;51.834;4.706;2023-01-24T16:20:21;3.80;99.90
25214;DHT22;13160;51.834;4.706;2023-01-24T16:22:54;3.70;99.90
25214;DHT22;13160;51.834;4.706;2023-01-24T16:27:59;3.70;99.90
25214;DHT22;13160;51.834;4.706;2023-01-24T16:30:31;3.70;99.90
25214;DHT22;13160;51.834;4.706;2023-01-24T16:33:07;3.60;99.90
25214;DHT22;13160;51.834;4.706;2023-01-24T16:35:39;3.60;99.90
25214;DHT22;13160;51.834;4.706;2023-01-24T16:38:08;3.70;99.90
25214;DHT22;13160;51.834;4.706;2023-01-24T16:40:39;3.70;99.90
25214;DHT22;13160;51.834;4.706;2023-01-24T16:43:15;3.60;99.90
25214;DHT22;13160;51.834;4.706;2023-01-24T16:45:50;3.70;99.90
25214;DHT22;13160;51.834;4.706;2023-01-24T16:48:23;3.60;99.90
25214;DHT22;13160;51.834;4.706;2023-01-24T16:51:00;3.60;99.90
25214;DHT22;13160;51.834;4.706;2023-01-24T16:53:29;3.60;99.90
25214;DHT22;13160;51.834;4.706;2023-01-24T16:56:00;3.60;99.90
25214;DHT22;13160;51.834;4.706;2023-01-24T16:58:31;3.50;99.90
25214;DHT22;13160;51.834;4.706;2023-01-24T17:01:06;3.50;99.90
25214;DHT22;13160;51.834;4.706;2023-01-24T17:03:37;3.50;99.90
25214;DHT22;13160;51.834;4.706;2023-01-24T17:06:07;3.40;99.90
25214;DHT22;13160;51.834;4.706;2023-01-24T17:39:59;3.50;99.90
25214;DHT22;13160;51.834;4.706;2023-01-24T17:42:33;3.50;99.90
25214;DHT22;13160;51.834;4.706;2023-01-24T17:45:03;3.50;99.90
25214;DHT22;13160;51.834;4.706;2023-01-24T17:47:32;3.40;99.90
25214;DHT22;13160;51.834;4.706;2023-01-24T17:50:07;3.40;99.90
25214;DHT22;13160;51.834;4.706;2023-01-24T17:52:39;3.50;99.90
25214;DHT22;13160;51.834;4.706;2023-01-24T17:55:12;3.40;99.90
25214;DHT22;13160;51.834;4.706;2023-01-24T17:57:45;3.40;99.90
25214;DHT22;13160;51.834;4.706;2023-01-24T18:13:50;3.40;99.90
25214;DHT22;13160;51.834;4.706;2023-01-24T18:16:22;3.40;99.90
25214;DHT22;13160;51.834;4.706;2023-01-24T19:50:04;3.20;99.90
25214;DHT22;13160;51.834;4.706;2023-01-24T19:52:39;3.10;99.90
25214;DHT22;13160;51.834;4.706;2023-01-24T19:55:15;3.20;99.90
25214;DHT22;13160;51.834;4.706;2023-01-24T19:57:44;3.10;99.90
25214;DHT22;13160;51.834;4.706;2023-01-24T20:00:16;3.20;99.90
25214;DHT22;13160;51.834;4.706;2023-01-24T20:02:52;3.20;99.90
25214;DHT22;13160;51.834;4.706;2023-01-24T20:05:26;3.20;99.90
25214;DHT22;13160;51.834;4.706;2023-01-24T20:07:56;3.20;99.90
25214;DHT22;13160;51.834;4.706;2023-01-24T20:10:25;3.20;99.90
25214;DHT22;13160;51.834;4.706;2023-01-24T20:12:54;3.20;99.90
25214;DHT22;13160;51.834;4.706;2023-01-24T21:34:44;3.10;99.90
25214;DHT22;13160;51.834;4.706;2023-01-24T21:37:13;3.20;99.90
25214;DHT22;13160;51.834;4.706;2023-01-24T21:39:54;3.20;99.90
25214;DHT22;13160;51.834;4.706;2023-01-24T21:42:23;3.10;99.90
25214;DHT22;13160;51.834;4.706;2023-01-24T21:44:52;3.20;99.90
25214;DHT22;13160;51.834;4.706;2023-01-24T21:47:24;3.10;99.90
25214;DHT22;13160;51.834;4.706;2023-01-24T21:49:58;3.10;99.90
25214;DHT22;13160;51.834;4.706;2023-01-24T21:52:27;3.20;99.90
25214;DHT22;13160;51.834;4.706;2023-01-24T22:19:41;3.00;99.90
25214;DHT22;13160;51.834;4.706;2023-01-24T22:22:32;3.00;99.90
25214;DHT22;13160;51.834;4.706;2023-01-24T22:25:18;3.00;99.90
25214;DHT22;13160;51.834;4.706;2023-01-24T22:27:56;2.90;99.90
25214;DHT22;13160;51.834;4.706;2023-01-24T22:30:25;3.00;99.90
25214;DHT22;13160;51.834;4.706;2023-01-24T22:32:57;2.90;99.90
25214;DHT22;13160;51.834;4.706;2023-01-24T22:35:29;2.90;99.90
25214;DHT22;13160;51.834;4.706;2023-01-24T22:37:59;3.00;99.90
25214;DHT22;13160;51.834;4.706;2023-01-24T22:40:29;2.90;99.90
25214;DHT22;13160;51.834;4.706;2023-01-24T22:42:57;3.00;99.90
25214;DHT22;13160;51.834;4.706;2023-01-24T22:45:29;2.90;99.90
